createdAt,value
2023-03-01T00:01:07.191Z,0.42
2023-03-01T00:03:34.838Z,0.40
2023-03-01T00:06:03.392Z,0.39
2023-03-01T00:08:30.669Z,0.39
2023-03-01T00:11:05.274Z,0.39
2023-03-01T00:13:32.992Z,0.38
2023-03-01T00:16:01.718Z,0.38
2023-03-01T00:18:28.536Z,0.34
2023-03-01T00:20:56.649Z,0.30
2023-03-01T00:23:24.226Z,0.27
2023-03-01T00:25:51.660Z,0.24
2023-03-01T00:28:19.383Z,0.20
2023-03-01T00:30:47.022Z,0.14
2023-03-01T00:33:14.099Z,0.04
2023-03-01T00:35:41.096Z,-0.07
2023-03-01T00:38:08.794Z,-0.16
2023-03-01T00:40:37.354Z,-0.24
2023-03-01T00:43:04.294Z,-0.26
2023-03-01T00:45:34.019Z,-0.30
2023-03-01T00:48:00.871Z,-0.33
2023-03-01T00:50:28.268Z,-0.34
2023-03-01T00:52:56.343Z,-0.36
2023-03-01T00:55:24.575Z,-0.37
2023-03-01T00:57:51.525Z,-0.38
2023-03-01T01:00:20.161Z,-0.39
2023-03-01T01:02:48.430Z,-0.40
2023-03-01T01:05:15.585Z,-0.42
2023-03-01T01:07:42.301Z,-0.45
2023-03-01T01:10:13.423Z,-0.49
2023-03-01T01:12:40.220Z,-0.52
2023-03-01T01:15:07.547Z,-0.55
2023-03-01T01:17:34.390Z,-0.60
2023-03-01T01:20:02.756Z,-0.64
2023-03-01T01:22:30.263Z,-0.68
2023-03-01T01:24:57.303Z,-0.73
2023-03-01T01:27:25.329Z,-0.79
2023-03-01T01:29:54.013Z,-0.85
2023-03-01T01:32:20.870Z,-0.94
2023-03-01T01:34:47.875Z,-1.01
2023-03-01T01:37:14.658Z,-1.06
2023-03-01T01:39:41.565Z,-1.12
2023-03-01T01:42:16.705Z,-1.17
2023-03-01T01:44:47.043Z,-1.21
2023-03-01T01:47:19.414Z,-1.26
2023-03-01T01:49:49.679Z,-1.31
2023-03-01T01:52:28.079Z,-1.36
2023-03-01T01:55:02.727Z,-1.41
2023-03-01T01:57:45.492Z,-1.46
2023-03-01T02:00:21.602Z,-1.51
2023-03-01T02:03:11.083Z,-1.54
2023-03-01T02:05:38.014Z,-1.55
2023-03-01T02:08:05.578Z,-1.56
2023-03-01T02:10:35.212Z,-1.58
2023-03-01T02:13:04.098Z,-1.60
2023-03-01T02:15:35.769Z,-1.63
2023-03-01T02:18:04.324Z,-1.66
2023-03-01T02:21:03.044Z,-1.67
2023-03-01T02:23:30.361Z,-1.74
2023-03-01T02:26:08.074Z,-1.73
2023-03-01T02:28:40.783Z,-1.75
2023-03-01T02:31:29.062Z,-1.77
2023-03-01T02:33:57.855Z,-1.78
2023-03-01T02:36:34.530Z,-1.81
2023-03-01T02:39:04.066Z,-1.81
2023-03-01T02:41:36.102Z,-1.84
2023-03-01T02:44:04.753Z,-1.87
2023-03-01T02:46:31.914Z,-1.89
2023-03-01T02:48:59.855Z,-1.90
2023-03-01T02:51:32.096Z,-1.91
2023-03-01T02:54:23.050Z,-1.89
2023-03-01T02:56:50.023Z,-1.85
2023-03-01T02:59:21.545Z,-1.83
2023-03-01T03:01:48.793Z,-1.82
2023-03-01T03:04:21.378Z,-1.81
2023-03-01T03:06:51.193Z,-1.82
2023-03-01T03:09:19.104Z,-1.83
2023-03-01T03:11:46.781Z,-1.85
2023-03-01T03:14:15.715Z,-1.88
2023-03-01T03:16:48.966Z,-1.92
2023-03-01T03:19:17.635Z,-1.96
2023-03-01T03:21:45.116Z,-2.00
2023-03-01T03:24:11.966Z,-2.04
2023-03-01T03:26:38.755Z,-2.08
2023-03-01T03:29:05.678Z,-2.12
2023-03-01T03:31:32.587Z,-2.16
2023-03-01T03:33:59.512Z,-2.19
2023-03-01T03:36:26.248Z,-2.23
2023-03-01T03:38:53.044Z,-2.25
2023-03-01T03:41:19.922Z,-2.27
2023-03-01T03:43:46.863Z,-2.29
2023-03-01T03:46:13.980Z,-2.32
2023-03-01T03:48:44.302Z,-2.32
2023-03-01T03:51:16.213Z,-2.34
2023-03-01T03:53:44.221Z,-2.35
2023-03-01T03:56:11.844Z,-2.36
2023-03-01T03:58:38.704Z,-2.38
2023-03-01T04:01:06.037Z,-2.41
2023-03-01T04:03:35.542Z,-2.42
2023-03-01T04:06:04.735Z,-2.43
2023-03-01T04:08:32.046Z,-2.45
2023-03-01T04:11:21.931Z,-2.48
2023-03-01T04:13:48.903Z,-2.48
2023-03-01T04:16:15.820Z,-2.50
2023-03-01T04:18:42.742Z,-2.52
2023-03-01T04:21:10.847Z,-2.54
2023-03-01T04:23:38.119Z,-2.54
2023-03-01T04:26:05.005Z,-2.55
2023-03-01T04:28:37.550Z,-2.56
2023-03-01T04:31:13.451Z,-2.58
2023-03-01T04:33:41.964Z,-2.60
2023-03-01T04:36:09.833Z,-2.62
2023-03-01T04:38:38.095Z,-2.63
2023-03-01T04:41:11.649Z,-2.64
2023-03-01T04:43:38.801Z,-2.66
2023-03-01T04:46:12.070Z,-2.66
2023-03-01T04:48:41.970Z,-2.70
2023-03-01T04:51:09.112Z,-2.74
2023-03-01T04:53:39.315Z,-2.74
2023-03-01T04:56:06.881Z,-2.73
2023-03-01T04:58:33.799Z,-2.73
2023-03-01T05:01:00.811Z,-2.75
2023-03-01T05:03:28.717Z,-2.77
2023-03-01T05:06:00.261Z,-2.79
2023-03-01T05:08:27.424Z,-2.79
2023-03-01T05:10:54.962Z,-2.77
2023-03-01T05:13:22.375Z,-2.74
2023-03-01T05:16:01.104Z,-2.72
2023-03-01T05:18:31.121Z,-2.68
2023-03-01T05:21:09.739Z,-2.65
2023-03-01T05:23:36.963Z,-2.57
2023-03-01T05:26:07.590Z,-2.51
2023-03-01T05:28:38.430Z,-2.46
2023-03-01T05:31:10.102Z,-2.40
2023-03-01T05:33:41.559Z,-2.34
2023-03-01T05:36:10.309Z,-2.30
2023-03-01T05:38:37.198Z,-2.26
2023-03-01T05:41:04.277Z,-2.22
2023-03-01T05:43:34.529Z,-2.17
2023-03-01T05:46:01.798Z,-2.12
2023-03-01T05:48:28.588Z,-2.05
2023-03-01T05:50:55.423Z,-1.97
2023-03-01T05:53:22.229Z,-1.92
2023-03-01T05:55:50.332Z,-1.85
2023-03-01T05:58:19.619Z,-1.80
2023-03-01T06:00:48.774Z,-1.68
2023-03-01T06:03:17.407Z,-1.58
2023-03-01T06:05:45.336Z,-1.51
2023-03-01T06:08:13.452Z,-1.42
2023-03-01T06:10:40.366Z,-1.36
2023-03-01T06:13:07.402Z,-1.27
2023-03-01T06:15:34.506Z,-1.17
2023-03-01T06:18:01.463Z,-1.08
2023-03-01T06:20:29.712Z,-1.04
2023-03-01T06:22:56.536Z,-0.97
2023-03-01T06:25:26.359Z,-0.85
2023-03-01T06:27:53.283Z,-0.79
2023-03-01T06:30:22.495Z,-0.72
2023-03-01T06:32:49.852Z,-0.67
2023-03-01T06:35:18.404Z,-0.62
2023-03-01T06:37:46.849Z,-0.62
2023-03-01T06:40:14.753Z,-0.57
2023-03-01T06:42:44.627Z,-0.42
2023-03-01T06:45:12.422Z,-0.30
2023-03-01T06:47:39.410Z,-0.20
2023-03-01T06:50:07.090Z,-0.07
2023-03-01T06:52:34.211Z,0.07
2023-03-01T06:55:01.806Z,0.16
2023-03-01T06:57:29.188Z,0.24
2023-03-01T06:59:56.137Z,0.23
2023-03-01T07:02:23.205Z,0.18
2023-03-01T07:04:51.523Z,0.11
2023-03-01T07:07:18.847Z,0.09
2023-03-01T07:09:46.839Z,0.11
2023-03-01T07:12:13.796Z,0.19
2023-03-01T07:14:41.121Z,0.42
2023-03-01T07:17:08.443Z,0.68
2023-03-01T07:19:35.231Z,0.81
2023-03-01T07:22:02.134Z,0.80
2023-03-01T07:24:29.032Z,0.76
2023-03-01T07:26:55.997Z,0.68
2023-03-01T07:29:22.932Z,0.65
2023-03-01T07:31:49.798Z,0.64
2023-03-01T07:34:16.783Z,0.57
2023-03-01T07:36:45.785Z,0.56
2023-03-01T07:39:12.680Z,0.57
2023-03-01T07:41:39.693Z,0.78
2023-03-01T07:44:06.797Z,1.00
2023-03-01T07:46:33.938Z,1.08
2023-03-01T07:49:00.884Z,1.34
2023-03-01T07:51:27.779Z,1.58
2023-03-01T07:53:54.716Z,1.74
2023-03-01T07:56:22.641Z,2.02
2023-03-01T07:58:50.999Z,2.30
2023-03-01T08:01:20.679Z,2.49
2023-03-01T08:03:48.123Z,2.67
2023-03-01T08:06:17.238Z,2.70
2023-03-01T08:08:45.167Z,2.82
2023-03-01T08:11:14.357Z,2.99
2023-03-01T08:13:42.127Z,3.17
2023-03-01T08:16:13.412Z,3.34
2023-03-01T08:18:40.756Z,3.72
2023-03-01T08:21:13.584Z,4.03
2023-03-01T08:23:41.261Z,4.11
2023-03-01T08:26:09.447Z,4.40
2023-03-01T08:28:36.734Z,4.33
2023-03-01T08:31:04.343Z,4.40
2023-03-01T08:33:31.283Z,4.36
2023-03-01T08:36:07.422Z,4.40
2023-03-01T08:38:35.785Z,4.87
2023-03-01T08:41:03.857Z,4.95
2023-03-01T08:43:30.963Z,4.67
2023-03-01T08:45:58.017Z,4.36
2023-03-01T08:48:25.726Z,4.68
2023-03-01T08:50:52.616Z,4.76
2023-03-01T08:53:19.397Z,4.93
2023-03-01T08:55:46.247Z,5.66
2023-03-01T08:58:13.201Z,6.20
2023-03-01T09:00:40.834Z,6.61
2023-03-01T09:03:07.649Z,6.98
2023-03-01T09:05:36.825Z,7.69
2023-03-01T09:08:03.736Z,8.24
2023-03-01T09:10:30.826Z,8.58
2023-03-01T09:12:57.682Z,8.85
2023-03-01T09:15:24.506Z,8.75
2023-03-01T09:17:52.345Z,8.45
2023-03-01T09:20:19.182Z,7.92
2023-03-01T09:22:46.035Z,7.26
2023-03-01T09:25:12.925Z,7.56
2023-03-01T09:27:39.722Z,7.95
2023-03-01T09:30:07.731Z,8.46
2023-03-01T09:32:34.667Z,8.77
2023-03-01T09:35:01.490Z,8.25
2023-03-01T09:37:28.327Z,7.51
2023-03-01T09:39:55.273Z,7.04
2023-03-01T09:42:22.242Z,7.00
2023-03-01T09:44:54.200Z,7.59
2023-03-01T09:47:25.695Z,8.31
2023-03-01T09:50:04.808Z,9.01
2023-03-01T09:52:35.512Z,9.75
2023-03-01T09:55:08.755Z,10.49
2023-03-01T09:58:02.273Z,11.08
2023-03-01T10:00:56.993Z,11.19
2023-03-01T10:03:28.559Z,11.07
2023-03-01T10:05:58.510Z,11.34
2023-03-01T10:08:53.548Z,11.62
2023-03-01T10:11:29.062Z,11.61
2023-03-01T10:14:03.653Z,11.60
2023-03-01T10:16:39.746Z,11.33
2023-03-01T10:19:14.734Z,11.21
2023-03-01T10:21:46.767Z,10.51
2023-03-01T10:24:22.090Z,10.31
2023-03-01T10:26:57.855Z,10.02
2023-03-01T10:29:31.148Z,9.90
2023-03-01T10:31:58.398Z,9.23
2023-03-01T10:34:35.106Z,8.44
2023-03-01T10:37:12.116Z,7.68
2023-03-01T10:39:55.995Z,7.23
2023-03-01T10:42:30.553Z,6.73
2023-03-01T10:44:57.708Z,6.07
2023-03-01T10:47:28.063Z,5.57
2023-03-01T10:49:56.365Z,5.44
2023-03-01T10:52:42.112Z,6.64
2023-03-01T10:55:31.346Z,7.99
2023-03-01T10:58:08.968Z,8.42
2023-03-01T11:00:53.165Z,8.66
2023-03-01T11:03:32.525Z,8.23
2023-03-01T11:06:13.542Z,7.64
2023-03-01T11:08:45.706Z,6.95
2023-03-01T11:11:12.704Z,6.37
2023-03-01T11:13:53.305Z,6.05
2023-03-01T11:16:40.728Z,5.69
2023-03-01T11:19:10.350Z,5.37
2023-03-01T11:21:41.492Z,5.15
2023-03-01T11:24:14.886Z,4.91
2023-03-01T11:26:47.535Z,4.75
2023-03-01T11:29:58.975Z,4.73
2023-03-01T11:32:31.886Z,4.53
2023-03-01T11:35:08.763Z,4.40
2023-03-01T11:38:05.520Z,4.35
2023-03-01T11:40:40.892Z,4.28
2023-03-01T11:43:46.843Z,4.18
2023-03-01T11:46:32.084Z,4.13
2023-03-01T11:49:23.630Z,4.16
2023-03-01T11:52:04.763Z,4.15
2023-03-01T11:55:01.301Z,3.99
2023-03-01T11:57:54.833Z,3.92
2023-03-01T12:00:46.894Z,3.86
2023-03-01T12:03:26.962Z,3.77
2023-03-01T12:06:03.865Z,3.77
2023-03-01T12:08:40.928Z,3.82
2023-03-01T12:11:10.337Z,3.94
2023-03-01T12:13:52.144Z,4.05
2023-03-01T12:16:28.842Z,4.28
2023-03-01T12:19:34.938Z,4.92
2023-03-01T12:22:31.228Z,6.32
2023-03-01T12:25:23.896Z,7.60
2023-03-01T12:28:09.699Z,8.74
2023-03-01T12:31:01.064Z,9.54
2023-03-01T12:33:43.691Z,9.92
2023-03-01T12:36:22.752Z,9.67
2023-03-01T12:39:05.060Z,8.93
2023-03-01T12:41:38.102Z,7.95
2023-03-01T12:44:35.604Z,7.42
2023-03-01T12:47:19.856Z,7.81
2023-03-01T12:49:46.913Z,7.74
2023-03-01T12:52:21.281Z,7.83
2023-03-01T12:54:52.232Z,8.58
2023-03-01T12:57:38.486Z,9.63
2023-03-01T13:00:27.505Z,10.31
2023-03-01T13:03:13.211Z,10.79
2023-03-01T13:05:56.930Z,10.40
2023-03-01T13:08:38.844Z,10.45
2023-03-01T13:11:21.554Z,10.74
2023-03-01T13:13:55.044Z,10.60
2023-03-01T13:16:31.470Z,10.47
2023-03-01T13:19:19.372Z,10.88
2023-03-01T13:21:49.054Z,11.57
2023-03-01T13:24:41.779Z,11.57
2023-03-01T13:27:11.367Z,10.98
2023-03-01T13:29:51.568Z,10.84
2023-03-01T13:32:44.223Z,10.84
2023-03-01T13:35:20.763Z,11.19
2023-03-01T13:37:47.705Z,11.43
2023-03-01T13:40:20.134Z,11.35
2023-03-01T13:43:04.130Z,10.93
2023-03-01T13:45:43.649Z,10.88
2023-03-01T13:48:24.465Z,10.76
2023-03-01T13:51:11.850Z,10.52
2023-03-01T13:53:47.373Z,10.44
2023-03-01T13:56:25.180Z,10.05
2023-03-01T13:59:15.333Z,9.89
2023-03-01T14:01:44.006Z,10.06
2023-03-01T14:04:26.225Z,9.98
2023-03-01T14:07:20.466Z,9.96
2023-03-01T14:09:55.940Z,9.73
2023-03-01T14:12:53.149Z,9.61
2023-03-01T14:15:28.174Z,9.62
2023-03-01T14:18:02.705Z,9.35
2023-03-01T14:20:32.846Z,9.18
2023-03-01T14:23:03.446Z,9.15
2023-03-01T14:25:36.736Z,9.19
2023-03-01T14:28:30.995Z,9.19
2023-03-01T14:30:59.863Z,9.06
2023-03-01T14:33:31.061Z,9.02
2023-03-01T14:35:58.052Z,8.69
2023-03-01T14:38:40.338Z,8.50
2023-03-01T14:41:18.415Z,8.43
2023-03-01T14:43:48.488Z,8.37
2023-03-01T14:46:31.738Z,8.16
2023-03-01T14:49:14.704Z,7.93
2023-03-01T14:51:47.131Z,7.91
2023-03-01T14:54:28.168Z,7.76
2023-03-01T14:57:00.371Z,7.48
2023-03-01T14:59:27.409Z,7.21
2023-03-01T15:01:58.257Z,6.96
2023-03-01T15:04:28.157Z,6.72
2023-03-01T15:07:05.241Z,6.50
2023-03-01T15:09:35.580Z,6.24
2023-03-01T15:12:27.992Z,6.08
2023-03-01T15:15:04.478Z,6.05
2023-03-01T15:17:34.886Z,5.97
2023-03-01T15:20:05.160Z,5.88
2023-03-01T15:22:32.541Z,5.74
2023-03-01T15:24:59.614Z,5.54
2023-03-01T15:27:28.179Z,5.34
2023-03-01T15:30:02.686Z,5.14
2023-03-01T15:32:40.547Z,4.93
2023-03-01T15:35:38.791Z,4.79
2023-03-01T15:38:26.447Z,4.59
2023-03-01T15:40:54.060Z,4.36
2023-03-01T15:43:47.177Z,4.09
2023-03-01T15:46:27.837Z,3.78
2023-03-01T15:48:57.950Z,3.46
2023-03-01T15:51:31.681Z,3.22
2023-03-01T15:54:02.340Z,2.97
2023-03-01T15:56:29.439Z,2.74
2023-03-01T15:59:01.896Z,2.57
2023-03-01T16:01:29.730Z,2.41
2023-03-01T16:03:58.627Z,2.24
2023-03-01T16:06:25.510Z,2.09
2023-03-01T16:08:52.885Z,1.97
2023-03-01T16:11:21.222Z,1.87
2023-03-01T16:13:48.582Z,1.77
2023-03-01T16:16:17.112Z,1.68
2023-03-01T16:18:46.049Z,1.59
2023-03-01T16:21:21.219Z,1.50
2023-03-01T16:23:48.444Z,1.43
2023-03-01T16:26:15.697Z,1.34
2023-03-01T16:28:44.210Z,1.25
2023-03-01T16:31:15.075Z,1.16
2023-03-01T16:33:42.116Z,1.07
2023-03-01T16:36:11.550Z,1.01
2023-03-01T16:38:39.270Z,0.96
2023-03-01T16:41:11.510Z,0.91
2023-03-01T16:44:02.732Z,0.86
2023-03-01T16:46:29.623Z,0.81
2023-03-01T16:48:57.155Z,0.77
2023-03-01T16:51:24.890Z,0.72
2023-03-01T16:53:52.143Z,0.67
2023-03-01T16:56:19.658Z,0.62
2023-03-01T16:58:46.936Z,0.59
2023-03-01T17:01:17.760Z,0.56
2023-03-01T17:03:46.758Z,0.53
2023-03-01T17:06:16.266Z,0.51
2023-03-01T17:08:43.230Z,0.50
2023-03-01T17:11:13.732Z,0.46
2023-03-01T17:13:41.540Z,0.42
2023-03-01T17:16:11.843Z,0.37
2023-03-01T17:18:39.618Z,0.28
2023-03-01T17:21:08.030Z,0.30
2023-03-01T17:23:36.699Z,0.23
2023-03-01T17:26:04.404Z,0.18
2023-03-01T17:28:33.995Z,0.11
2023-03-01T17:31:02.415Z,0.07
2023-03-01T17:33:32.638Z,0.03
2023-03-01T17:36:00.204Z,0.00
2023-03-01T17:38:27.752Z,0.01
2023-03-01T17:40:54.532Z,-0.01
2023-03-01T17:43:21.709Z,-0.03
2023-03-01T17:45:51.032Z,-0.06
2023-03-01T17:48:18.184Z,-0.12
2023-03-01T17:50:45.504Z,-0.13
2023-03-01T17:53:12.892Z,-0.16
2023-03-01T17:55:42.568Z,-0.18
2023-03-01T17:58:12.664Z,-0.18
2023-03-01T18:00:39.956Z,-0.18
2023-03-01T18:03:07.028Z,-0.18
2023-03-01T18:05:35.654Z,-0.20
2023-03-01T18:08:23.225Z,-0.21
2023-03-01T18:11:20.609Z,-0.20
2023-03-01T18:13:47.540Z,-0.22
2023-03-01T18:16:16.179Z,-0.24
2023-03-01T18:18:44.727Z,-0.25
2023-03-01T18:21:12.938Z,-0.27
2023-03-01T18:23:41.092Z,-0.29
2023-03-01T18:26:11.343Z,-0.32
2023-03-01T18:28:39.513Z,-0.34
2023-03-01T18:31:10.884Z,-0.36
2023-03-01T18:33:38.850Z,-0.36
2023-03-01T18:36:15.485Z,-0.37
2023-03-01T18:38:42.475Z,-0.38
2023-03-01T18:41:09.251Z,-0.39
2023-03-01T18:43:36.196Z,-0.41
2023-03-01T18:46:04.790Z,-0.41
2023-03-01T18:48:32.122Z,-0.43
2023-03-01T18:51:10.870Z,-0.45
2023-03-01T18:53:37.801Z,-0.47
2023-03-01T18:56:05.599Z,-0.48
2023-03-01T18:58:33.063Z,-0.50
2023-03-01T19:01:03.660Z,-0.53
2023-03-01T19:03:31.353Z,-0.57
2023-03-01T19:06:00.375Z,-0.61
2023-03-01T19:08:28.894Z,-0.64
2023-03-01T19:11:01.946Z,-0.65
2023-03-01T19:13:29.948Z,-0.64
2023-03-01T19:16:14.525Z,-0.64
2023-03-01T19:18:49.762Z,-0.65
2023-03-01T19:21:19.462Z,-0.65
2023-03-01T19:23:48.640Z,-0.66
2023-03-01T19:26:18.735Z,-0.67
2023-03-01T19:28:46.502Z,-0.72
2023-03-01T19:31:20.450Z,-0.75
2023-03-01T19:33:47.205Z,-0.78
2023-03-01T19:36:14.373Z,-0.83
2023-03-01T19:38:43.306Z,-0.91
2023-03-01T19:41:41.195Z,-0.91
2023-03-01T19:44:08.884Z,-0.97
2023-03-01T19:46:36.254Z,-1.00
2023-03-01T19:49:04.073Z,-1.06
2023-03-01T19:51:36.027Z,-1.11
2023-03-01T19:54:05.030Z,-1.15
2023-03-01T19:56:32.230Z,-1.20
2023-03-01T19:59:00.074Z,-1.25
2023-03-01T20:01:32.327Z,-1.29
2023-03-01T20:04:00.132Z,-1.33
2023-03-01T20:06:28.931Z,-1.38
2023-03-01T20:08:55.864Z,-1.43
2023-03-01T20:11:22.753Z,-1.49
2023-03-01T20:13:49.707Z,-1.53
2023-03-01T20:16:19.719Z,-1.57
2023-03-01T20:18:46.807Z,-1.61
2023-03-01T20:21:24.929Z,-1.64
2023-03-01T20:23:52.544Z,-1.66
2023-03-01T20:26:22.385Z,-1.68
2023-03-01T20:28:51.299Z,-1.70
2023-03-01T20:31:21.140Z,-1.73
2023-03-01T20:33:48.573Z,-1.76
2023-03-01T20:36:15.882Z,-1.79
2023-03-01T20:38:42.656Z,-1.80
2023-03-01T20:41:11.825Z,-1.82
2023-03-01T20:43:40.303Z,-1.82
2023-03-01T20:46:10.863Z,-1.81
2023-03-01T20:48:39.271Z,-1.80
2023-03-01T20:51:07.593Z,-1.78
2023-03-01T20:53:34.791Z,-1.78
2023-03-01T20:56:06.256Z,-1.77
2023-03-01T20:58:35.209Z,-1.78
2023-03-01T21:01:03.642Z,-1.77
2023-03-01T21:03:31.338Z,-1.79
2023-03-01T21:06:00.086Z,-1.79
2023-03-01T21:08:27.079Z,-1.82
2023-03-01T21:10:56.138Z,-1.85
2023-03-01T21:13:24.528Z,-1.91
2023-03-01T21:16:04.122Z,-1.95
2023-03-01T21:18:32.304Z,-1.96
2023-03-01T21:21:05.182Z,-1.98
2023-03-01T21:23:33.936Z,-1.99
2023-03-01T21:26:12.935Z,-2.00
2023-03-01T21:28:40.755Z,-1.99
2023-03-01T21:31:11.851Z,-1.98
2023-03-01T21:33:42.708Z,-1.96
2023-03-01T21:36:10.074Z,-1.93
2023-03-01T21:38:39.539Z,-1.92
2023-03-01T21:41:09.231Z,-1.91
2023-03-01T21:43:37.305Z,-1.90
2023-03-01T21:46:06.918Z,-1.92
2023-03-01T21:48:34.156Z,-1.94
2023-03-01T21:51:02.382Z,-1.96
2023-03-01T21:53:31.653Z,-1.98
2023-03-01T21:55:59.211Z,-2.00
2023-03-01T21:58:28.372Z,-2.03
2023-03-01T22:00:55.750Z,-2.05
2023-03-01T22:03:22.651Z,-2.07
2023-03-01T22:06:01.832Z,-2.10
2023-03-01T22:08:28.887Z,-2.13
2023-03-01T22:10:55.648Z,-2.15
2023-03-01T22:13:22.456Z,-2.16
2023-03-01T22:15:49.180Z,-2.15
2023-03-01T22:18:15.915Z,-2.14
2023-03-01T22:20:42.731Z,-2.13
2023-03-01T22:23:09.528Z,-2.10
2023-03-01T22:25:41.849Z,-2.09
2023-03-01T22:28:08.615Z,-2.08
2023-03-01T22:30:35.724Z,-2.07
2023-03-01T22:33:02.580Z,-2.06
2023-03-01T22:35:29.623Z,-2.03
2023-03-01T22:37:56.567Z,-2.03
2023-03-01T22:40:23.368Z,-2.01
2023-03-01T22:42:50.175Z,-2.01
2023-03-01T22:45:17.100Z,-2.02
2023-03-01T22:47:43.868Z,-2.05
2023-03-01T22:50:14.514Z,-2.08
2023-03-01T22:52:41.552Z,-2.10
2023-03-01T22:55:09.164Z,-2.13
2023-03-01T22:57:35.919Z,-2.15
2023-03-01T23:00:06.903Z,-2.17
2023-03-01T23:02:34.346Z,-2.20
2023-03-01T23:05:01.134Z,-2.23
2023-03-01T23:07:27.929Z,-2.27
2023-03-01T23:09:54.894Z,-2.30
2023-03-01T23:12:21.719Z,-2.34
2023-03-01T23:14:48.681Z,-2.36
2023-03-01T23:17:15.538Z,-2.35
2023-03-01T23:19:42.310Z,-2.34
2023-03-01T23:22:09.096Z,-2.30
2023-03-01T23:24:36.181Z,-2.26
2023-03-01T23:27:04.054Z,-2.21
2023-03-01T23:29:32.008Z,-2.15
2023-03-01T23:31:59.699Z,-2.07
2023-03-01T23:34:27.301Z,-1.99
2023-03-01T23:36:55.135Z,-1.90
2023-03-01T23:39:22.668Z,-1.80
2023-03-01T23:41:49.733Z,-1.71
2023-03-01T23:44:18.902Z,-1.62
2023-03-01T23:46:47.092Z,-1.55
2023-03-01T23:49:16.946Z,-1.47
2023-03-01T23:51:47.142Z,-1.39
2023-03-01T23:54:17.215Z,-1.33
2023-03-01T23:56:45.243Z,-1.28
2023-03-01T23:59:21.353Z,-1.23
